Time;durP1;ratioP1;P1;durP2;ratioP2;P2;SDS_P1;SDS_P2;PMS_P1;PMS_P2;Temp;Humidity;BMP_temperature;BMP_pressure;BME280_temperature;BME280_humidity;BME280_pressure;Samples;Min_cycle;Max_cycle;Signal;HPM_P1;HPM_P2
2023/03/13 00:00:28;;;;;;;;;;;;;;;;;;;;;
2023/03/13 00:07:09;;;;;;;;;;;;;;;;;;;;;
2023/03/13 09:50:19;;;;;;;;;;;;;;;;;;;;;
2023/03/13 10:07:25;;;;;;;;;;;;;;;;;;;;;
2023/03/13 10:13:36;;;;;;;;;;;;;;;-145.06;100.00;60892.56;5960890;23;19909;-92
2023/03/13 10:16:45;;;;;;;;;;;;;;;-145.06;100.00;60892.56;5928045;23;19908;-93
2023/03/13 11:31:12;;;;;;;;;;;;;;;-145.06;100.00;60892.56;5962502;22;20293;-91
2023/03/13 11:34:16;;;;;;;;;;;;;;;-145.06;100.00;60892.56;5989817;23;19908;-92
2023/03/13 11:47:46;;;;;;;;;;;;;;;-145.06;100.00;60892.56;5901575;23;19909;-93
2023/03/13 12:01:15;;;;;;;;;;;;;;;-145.06;100.00;60892.56;5817634;23;19986;-93
2023/03/13 12:04:34;;;;;;;;;;;;;;;-145.06;100.00;60892.56;5847187;23;20350;-93
2023/03/13 12:07:54;;;;;;;;;;;;;;;-145.06;100.00;60892.56;5912589;23;20511;-92
2023/03/13 12:11:01;;;;;;;;;;;;;;;-145.06;100.00;60892.56;5891546;23;19909;-94
2023/03/13 12:14:03;;;;;;;;;;;;;;;-145.06;100.00;60892.56;5870795;23;19910;-93
2023/03/13 12:17:16;;;;;;;;;;;;;;;-145.06;100.00;60892.56;5871602;23;19913;-94
2023/03/13 12:20:25;;;;;;;;;;;;;;;-145.06;100.00;60892.56;5900741;23;19908;-92
2023/03/13 12:23:33;;;;;;;;;;;;;;;;;;;;;
2023/03/13 12:26:16;;;;;;;;;;;;;;;-145.06;100.00;60892.56;5988485;23;19909;-92
2023/03/13 12:29:13;;;;;;;;;;;;;;;-145.06;100.00;60892.56;5958185;23;19908;-91
2023/03/13 12:32:05;;;;;;;;;;;;;;;-145.06;100.00;60892.56;5956803;23;19916;-92
2023/03/13 12:34:47;;;;;;;;;;;;;;;-145.06;100.00;60892.56;5956756;23;19908;-93
2023/03/13 12:39:59;;;;;;;;;;;;;;;-145.06;100.00;60892.56;5989452;22;19950;-91
2023/03/13 12:49:22;;;;;;;;;;;;;;;-145.06;100.00;60892.56;6017023;23;19911;-92
2023/03/13 12:52:09;;;;;;;;;;;;;;;-145.06;100.00;60892.56;5984704;23;19908;-92
2023/03/13 12:55:07;;;;;;;;;;;;;;;-145.06;100.00;60892.56;5984610;23;19908;-91
2023/03/13 12:58:10;;;;;;;;;;;;;;;-145.06;100.00;60892.56;5984504;23;19912;-92
2023/03/13 13:00:59;;;;;;;;;;;;;;;-145.06;100.00;60892.56;5985655;23;19908;-92
2023/03/13 13:03:47;;;;;;;;;;;;;;;-145.06;100.00;60892.56;5984750;23;20216;-91
2023/03/13 13:06:49;;;;;;;;;;;;;;;-145.06;100.00;60892.56;5984110;23;19908;-92
2023/03/13 13:13:28;;;;;;;;;;;;;;;;;;;;;
2023/03/13 13:16:40;;;;;;;;;;;;;;;-145.06;100.00;60892.56;5898712;23;19984;-92
2023/03/13 13:19:40;;;;;;;;;;;;;;;-145.06;100.00;60892.56;5895855;23;19980;-92
2023/03/13 13:26:02;;;;;;;;;;;;;;;-145.06;100.00;60892.56;6016159;23;19908;-92
2023/03/13 13:28:45;;;;;;;;;;;;;;;-145.06;100.00;60892.56;5982547;23;19908;-91
2023/03/13 13:35:10;;;;;;;;;;;;;;;;;;;;;
2023/03/13 13:46:37;;;;;;;;;;;;;;;-145.06;100.00;60892.56;4920147;28;20098;-92
2023/03/13 13:49:24;;;;;;;;;;;;;;;-145.06;100.00;60892.56;4916133;28;20324;-92
2023/03/13 13:52:09;;;;;;;;;;;;;;;-145.06;100.00;60892.56;4901872;28;19951;-91
2023/03/13 13:54:54;;;;;;;;;;;;;;;-145.06;100.00;60892.56;4895824;28;20086;-90
2023/03/13 13:57:44;;;;;;;;;;;;;;;-145.06;100.00;60892.56;4897272;28;20003;-90
2023/03/13 14:00:27;;;;;;;;;;;;;;;-145.06;100.00;60892.56;4894696;28;19913;-92
2023/03/13 14:03:18;;;;;;;;;;;;;;;-145.06;100.00;60892.56;4892787;28;19917;-91
2023/03/13 14:06:20;;;;;;;;;;;;;;;-145.06;100.00;60892.56;4893985;28;19920;-92
2023/03/13 14:09:13;;;;;;;;;;;;;;;-145.06;100.00;60892.56;4893433;28;19925;-93
2023/03/13 14:11:55;;;;;;;;;;;;;;;-145.06;100.00;60892.56;4901837;28;19917;-91
2023/03/13 14:14:40;;;;;;;;;;;;;;;-145.06;100.00;60892.56;4904788;28;19917;-90
2023/03/13 14:17:20;;;;;;;;;;;;;;;-145.06;100.00;60892.56;4903760;28;19920;-91
2023/03/13 14:27:09;;;;;;;;;;;;;;;-145.06;100.00;60892.56;4884114;28;19921;-92
2023/03/13 14:33:12;;;;;;;;;;;;;;;-145.06;100.00;60892.56;4861824;28;19917;-91
2023/03/13 14:50:03;;;;;;;;;;;;;;;-145.06;100.00;60892.56;5043337;22;19932;-91
2023/03/13 14:53:11;;;;;;;;;;;;;;;-145.06;100.00;60892.56;4898229;28;19952;-93
2023/03/13 15:02:59;;;;;;;;;;;;;;;;;;;;;
2023/03/13 15:05:56;;;;;;;;;;;;;;;-145.06;100.00;60892.56;4893080;28;19921;-92
2023/03/13 16:10:20;;;;;;;;;;;;;;;-145.06;100.00;60892.56;5049279;23;19939;-92
2023/03/13 16:13:04;;;;;;;;;;;;;;;-145.06;100.00;60892.56;4833481;28;20367;-90
2023/03/13 16:16:27;;;;;;;;;;;;;;;-145.06;100.00;60892.56;4832741;28;19917;-91
2023/03/13 16:19:32;;;;;;;;;;;;;;;-145.06;100.00;60892.56;4834694;28;19957;-91
2023/03/13 16:26:11;;;;;;;;;;;;;;;-145.06;100.00;60892.56;4817171;28;20281;-92
2023/03/13 16:36:14;;;;;;;;;;;;;;;;;;;;;
2023/03/13 16:43:03;;;;;;;;;;;;;;;;;;;;;
2023/03/13 16:50:10;;;;;;;;;;;;;;;-145.06;100.00;60892.56;4701513;29;19916;-91
2023/03/13 17:05:16;;;;;;;;;;;;;;;;;;;;;
2023/03/13 17:08:23;;;;;;;;;;;;;;;-145.06;100.00;60892.56;4787061;28;19922;-91
2023/03/13 17:15:08;;;;;;;;;;;;;;;-145.06;100.00;60892.56;4785908;28;19910;-90
2023/03/13 17:21:53;;;;;;;;;;;;;;;-145.06;100.00;60892.56;4810025;28;19922;-91
2023/03/13 17:32:27;;;;;;;;;;;;;;;;;;;;;
2023/03/13 17:48:33;;;;;;;;;;;;;;;-145.06;100.00;60892.56;4834444;22;19929;-92
2023/03/13 17:51:20;;;;;;;;;;;;;;;-145.06;100.00;60892.56;4821182;28;19918;-91
2023/03/13 17:54:12;;;;;;;;;;;;;;;-145.06;100.00;60892.56;4810490;28;19914;-91
2023/03/13 17:56:55;;;;;;;;;;;;;;;-145.06;100.00;60892.56;4814788;28;19918;-91
2023/03/13 17:59:34;;;;;;;;;;;;;;;-145.06;100.00;60892.56;4815107;28;19921;-92
2023/03/13 18:02:16;;;;;;;;;;;;;;;-145.06;100.00;60892.56;4811292;28;19917;-91
2023/03/13 18:05:00;;;;;;;;;;;;;;;-145.06;100.00;60892.56;4816398;28;19921;-92
2023/03/13 18:07:45;;;;;;;;;;;;;;;-145.06;100.00;60892.56;4837657;28;19918;-92
2023/03/13 18:10:28;;;;;;;;;;;;;;;-145.06;100.00;60892.56;4823973;28;19922;-91
2023/03/13 18:13:13;;;;;;;;;;;;;;;-145.06;100.00;60892.56;4814657;28;19917;-92
2023/03/13 18:15:52;;;;;;;;;;;;;;;-145.06;100.00;60892.56;4814510;28;19914;-90
2023/03/13 18:18:34;;;;;;;;;;;;;;;-145.06;100.00;60892.56;4814667;28;20001;-90
2023/03/13 18:21:16;;;;;;;;;;;;;;;-145.06;100.00;60892.56;4813965;28;19914;-90
2023/03/13 18:23:57;;;;;;;;;;;;;;;-145.06;100.00;60892.56;4815443;28;19917;-92
2023/03/13 18:26:37;;;;;;;;;;;;;;;-145.06;100.00;60892.56;4814829;28;19961;-91
2023/03/13 18:29:20;;;;;;;;;;;;;;;-145.06;100.00;60892.56;4795590;28;19914;-91
2023/03/13 18:32:02;;;;;;;;;;;;;;;-145.06;100.00;60892.56;4815646;28;19949;-91
2023/03/13 18:34:43;;;;;;;;;;;;;;;-145.06;100.00;60892.56;4821753;28;19917;-92
2023/03/13 18:37:25;;;;;;;;;;;;;;;-145.06;100.00;60892.56;4823221;28;19918;-92
2023/03/13 18:40:12;;;;;;;;;;;;;;;-145.06;100.00;60892.56;4818113;28;19961;-91
2023/03/13 18:42:51;;;;;;;;;;;;;;;-145.06;100.00;60892.56;4837296;28;19913;-92
2023/03/13 18:45:30;;;;;;;;;;;;;;;-145.06;100.00;60892.56;4815989;28;19922;-91
2023/03/13 18:48:10;;;;;;;;;;;;;;;-145.06;100.00;60892.56;4822213;28;19965;-90
2023/03/13 18:50:49;;;;;;;;;;;;;;;-145.06;100.00;60892.56;4817803;28;20008;-91
2023/03/13 18:53:30;;;;;;;;;;;;;;;-145.06;100.00;60892.56;4817325;28;19918;-91
2023/03/13 18:56:32;;;;;;;;;;;;;;;-145.06;100.00;60892.56;4819687;28;19914;-90
2023/03/13 18:59:47;;;;;;;;;;;;;;;-145.06;100.00;60892.56;4816554;28;19918;-91
2023/03/13 19:02:26;;;;;;;;;;;;;;;-145.06;100.00;60892.56;4831833;28;19914;-91
2023/03/13 19:05:11;;;;;;;;;;;;;;;-145.06;100.00;60892.56;4820763;28;20024;-91
2023/03/13 19:25:03;;;;;;;;;;;;;;;;;;;;;
2023/03/13 19:28:17;;;;;;;;;;;;;;;-145.06;100.00;60892.56;4783327;29;19919;-93
2023/03/13 19:31:09;;;;;;;;;;;;;;;;;;;;;
2023/03/13 19:33:57;;;;;;;;;;;;;;;-145.06;100.00;60892.56;4825977;28;19914;-93
2023/03/13 19:40:27;;;;;;;;;;;;;;;-145.06;100.00;60892.56;4804120;28;19914;-93
2023/03/13 19:47:05;;;;;;;;;;;;;;;;;;;;;
2023/03/13 19:50:32;;;;;;;;;;;;;;;;;;;;;
2023/03/13 19:53:41;;;;;;;;;;;;;;;-145.06;100.00;60892.56;4747722;29;19919;-91
2023/03/13 19:56:54;;;;;;;;;;;;;;;-145.06;100.00;60892.56;4753580;28;19943;-93
2023/03/13 20:00:16;;;;;;;;;;;;;;;;;;;;;
2023/03/13 20:03:04;;;;;;;;;;;;;;;-145.06;100.00;60892.56;4851372;28;19918;-91
2023/03/13 20:05:53;;;;;;;;;;;;;;;-145.06;100.00;60892.56;4829375;28;19949;-92
2023/03/13 20:08:35;;;;;;;;;;;;;;;-145.06;100.00;60892.56;4827595;28;19913;-91
2023/03/13 20:11:15;;;;;;;;;;;;;;;-145.06;100.00;60892.56;4829200;28;19948;-93
2023/03/13 20:13:59;;;;;;;;;;;;;;;-145.06;100.00;60892.56;4828685;28;19953;-92
2023/03/13 20:16:56;;;;;;;;;;;;;;;-145.06;100.00;60892.56;4828237;28;19914;-92
2023/03/13 20:19:54;;;;;;;;;;;;;;;-145.06;100.00;60892.56;4828738;28;19953;-93
2023/03/13 20:23:03;;;;;;;;;;;;;;;;;;;;;
2023/03/13 20:29:32;;;;;;;;;;;;;;;-145.06;100.00;60892.56;4817550;28;19945;-94
2023/03/13 20:32:21;;;;;;;;;;;;;;;-145.06;100.00;60892.56;4807450;28;19914;-91
2023/03/13 20:35:01;;;;;;;;;;;;;;;-145.06;100.00;60892.56;4821880;28;20186;-92
2023/03/13 20:37:40;;;;;;;;;;;;;;;-145.06;100.00;60892.56;4825814;28;19914;-91
2023/03/13 20:40:26;;;;;;;;;;;;;;;-145.06;100.00;60892.56;4826157;28;19981;-92
2023/03/13 20:43:08;;;;;;;;;;;;;;;-145.06;100.00;60892.56;4824368;28;19914;-93
2023/03/13 20:45:48;;;;;;;;;;;;;;;-145.06;100.00;60892.56;4824051;28;19918;-92
2023/03/13 20:48:27;;;;;;;;;;;;;;;-145.06;100.00;60892.56;4804657;28;19950;-91
2023/03/13 20:51:07;;;;;;;;;;;;;;;-145.06;100.00;60892.56;4801748;28;20428;-92
2023/03/13 20:53:48;;;;;;;;;;;;;;;-145.06;100.00;60892.56;4800747;28;19914;-92
2023/03/13 20:56:41;;;;;;;;;;;;;;;-145.06;100.00;60892.56;4804538;28;19918;-93
2023/03/13 20:59:20;;;;;;;;;;;;;;;-145.06;100.00;60892.56;4802943;28;19914;-93
2023/03/13 21:02:09;;;;;;;;;;;;;;;-145.06;100.00;60892.56;4810136;28;19918;-92
2023/03/13 21:05:17;;;;;;;;;;;;;;;-145.06;100.00;60892.56;4817870;28;19922;-91
2023/03/13 21:25:11;;;;;;;;;;;;;;;;;;;;;
2023/03/13 21:34:50;;;;;;;;;;;;;;;-145.06;100.00;60892.56;4794411;28;19914;-92
2023/03/13 21:45:54;;;;;;;;;;;;;;;-145.06;100.00;60892.56;5647039;23;19933;-92
2023/03/13 21:52:22;;;;;;;;;;;;;;;-145.06;100.00;60892.56;4822572;28;19918;-91
2023/03/13 21:55:38;;;;;;;;;;;;;;;-145.06;100.00;60892.56;4812761;28;19914;-91
2023/03/13 21:58:38;;;;;;;;;;;;;;;-145.06;100.00;60892.56;4807585;28;19918;-92
2023/03/13 22:01:34;;;;;;;;;;;;;;;-145.06;100.00;60892.56;4808860;28;19914;-92
2023/03/13 22:04:47;;;;;;;;;;;;;;;;;;;;;
2023/03/13 22:11:04;;;;;;;;;;;;;;;;;;;;;
2023/03/13 22:14:17;;;;;;;;;;;;;;;;;;;;;
2023/03/13 22:20:32;;;;;;;;;;;;;;;-145.06;100.00;60892.56;4848114;28;19914;-92
2023/03/13 22:30:13;;;;;;;;;;;;;;;;;;;;;
2023/03/13 22:33:10;;;;;;;;;;;;;;;-145.06;100.00;60892.56;4856640;28;19914;-92
2023/03/13 22:36:18;;;;;;;;;;;;;;;-145.06;100.00;60892.56;4835689;28;19913;-92
2023/03/13 22:46:19;;;;;;;;;;;;;;;-145.06;100.00;60892.56;4828125;28;20331;-91
2023/03/13 22:52:29;;;;;;;;;;;;;;;-145.06;100.00;60892.56;4781172;28;19914;-92
2023/03/13 23:09:13;;;;;;;;;;;;;;;-145.06;100.00;60892.56;4761906;28;19957;-92
2023/03/13 23:12:23;;;;;;;;;;;;;;;-145.06;100.00;60892.56;4815969;28;20343;-92
2023/03/13 23:15:41;;;;;;;;;;;;;;;-145.06;100.00;60892.56;4815426;28;19913;-92
2023/03/13 23:18:56;;;;;;;;;;;;;;;;;;;;;
2023/03/13 23:22:20;;;;;;;;;;;;;;;-145.06;100.00;60892.56;4836133;28;19918;-93
2023/03/13 23:37:25;;;;;;;;;;;;;;;-145.06;100.00;60892.56;4844764;28;19913;-91
2023/03/13 23:40:33;;;;;;;;;;;;;;;;;;;;;
2023/03/13 23:43:51;;;;;;;;;;;;;;;;;;;;;
2023/03/13 23:53:12;;;;;;;;;;;;;;;-145.06;100.00;60892.56;4844525;28;19913;-93
2023/03/13 23:56:27;;;;;;;;;;;;;;;;;;;;;
2023/03/13 23:59:21;;;;;;;;;;;;;;;-145.06;100.00;60892.56;4848771;28;19914;-93
